Milan, Kansas
Current Conditions -  °F | °C
As of 9:53 AM on Thursday 29 Jan 2015 (Local Time) from KICT Reporting Station
Overcast Overcast  
Wind Chill: 34°   Ceiling: 3200
Heat Index: 43°   Visibility: 10mi
Dew Point: 28°   Wind: 20mph
Humidity: 56%   Direction: 360°N
Pressure: 30.42"   Gusts: 35mph
Location:  37.26°N, 97.67°W
Report Text: KICT 291553Z 36017G30KT 10SM OVC032 06/M02 A3042 RMK AO2 PK WND 36033/1534 SLP301 T00611022
Loading
Personal Weather Stations






























Interactive Weather Map New forecast layout! Learn more

10-Day Weather Forecast

Advertisements
Track Severe Weather on mobile